createdAt,value
2023-03-01T00:03:20.977Z,101561.72
2023-03-01T00:07:45.502Z,101560.72
2023-03-01T00:11:29.338Z,101563.62
2023-03-01T00:14:52.779Z,101574.28
2023-03-01T00:18:34.688Z,101567.84
2023-03-01T00:22:03.885Z,101575.09
2023-03-01T00:25:43.172Z,101578.69
2023-03-01T00:29:27.610Z,101579.34
2023-03-01T00:33:20.321Z,101576.37
2023-03-01T00:37:07.725Z,101584.22
2023-03-01T00:40:46.303Z,101578.91
2023-03-01T00:44:16.046Z,101581.53
2023-03-01T00:47:41.173Z,101581.53
2023-03-01T00:51:23.418Z,101572.44
2023-03-01T00:54:42.616Z,101572.19
2023-03-01T00:58:27.964Z,101569.47
2023-03-01T01:01:57.303Z,101573.25
2023-03-01T01:05:45.258Z,101556.81
2023-03-01T01:09:18.522Z,101559.75
2023-03-01T01:13:07.854Z,101553.09
2023-03-01T01:16:56.776Z,101543.44
2023-03-01T01:20:26.170Z,101540.88
2023-03-01T01:23:45.035Z,101541.63
2023-03-01T01:27:51.871Z,101547.41
2023-03-01T01:31:35.862Z,101540.00
2023-03-01T01:35:17.023Z,101536.72
2023-03-01T01:39:08.686Z,101529.69
2023-03-01T01:42:32.644Z,101524.03
2023-03-01T01:46:34.911Z,101524.03
2023-03-01T01:49:58.830Z,101524.72
2023-03-01T01:53:40.692Z,101515.50
2023-03-01T01:57:10.350Z,101513.16
2023-03-01T02:00:59.276Z,101505.28
2023-03-01T02:04:37.301Z,101509.00
2023-03-01T02:08:17.878Z,101496.44
2023-03-01T02:15:56.028Z,101503.69
2023-03-01T02:19:48.209Z,101495.38
2023-03-01T02:23:40.477Z,101498.53
2023-03-01T02:27:07.854Z,101497.97
2023-03-01T02:30:31.451Z,101493.53
2023-03-01T02:34:09.815Z,101494.25
2023-03-01T02:38:00.975Z,101489.00
2023-03-01T02:41:48.074Z,101473.22
2023-03-01T02:45:06.088Z,101483.69
2023-03-01T02:53:40.493Z,101483.56
2023-03-01T02:57:24.450Z,101481.78
2023-03-01T03:01:00.911Z,101487.16
2023-03-01T03:04:38.881Z,101474.72
2023-03-01T03:08:17.828Z,101467.16
2023-03-01T03:12:05.004Z,101485.78
2023-03-01T03:15:37.141Z,101470.75
2023-03-01T03:19:06.577Z,101463.87
2023-03-01T03:22:55.977Z,101463.84
2023-03-01T03:26:30.232Z,101455.88
2023-03-01T03:30:10.281Z,101458.13
2023-03-01T03:34:06.166Z,101457.31
2023-03-01T03:38:06.180Z,101451.00
2023-03-01T03:41:45.622Z,101457.37
2023-03-01T03:45:19.730Z,101461.28
2023-03-01T03:48:51.442Z,101465.16
2023-03-01T03:52:17.426Z,101461.56
2023-03-01T03:55:35.558Z,101455.44
2023-03-01T03:59:09.742Z,101463.34
2023-03-01T04:02:35.421Z,101452.72
2023-03-01T04:06:09.291Z,101452.34
2023-03-01T04:09:54.248Z,101458.78
2023-03-01T04:13:29.242Z,101452.72
2023-03-01T04:17:08.514Z,101446.78
2023-03-01T04:20:58.963Z,101457.37
2023-03-01T04:24:56.401Z,101459.03
2023-03-01T04:28:44.110Z,101452.84
2023-03-01T04:32:24.295Z,101458.19
2023-03-01T04:36:07.701Z,101466.12
2023-03-01T04:39:36.183Z,101463.03
2023-03-01T04:43:23.945Z,101462.62
2023-03-01T04:47:13.568Z,101459.72
2023-03-01T04:55:27.634Z,101449.25
2023-03-01T04:58:56.453Z,101447.28
2023-03-01T05:02:32.538Z,101440.84
2023-03-01T05:06:00.901Z,101449.09
2023-03-01T05:09:40.696Z,101447.72
2023-03-01T05:17:10.392Z,101450.22
2023-03-01T05:20:37.699Z,101453.87
2023-03-01T05:24:16.747Z,101453.66
2023-03-01T05:27:40.253Z,101450.22
2023-03-01T05:31:24.296Z,101448.34
2023-03-01T05:35:22.655Z,101443.56
2023-03-01T05:38:50.138Z,101449.38
2023-03-01T05:42:36.882Z,101448.44
2023-03-01T05:46:28.913Z,101446.75
2023-03-01T05:50:05.505Z,101454.22
2023-03-01T05:53:41.836Z,101450.78
2023-03-01T05:57:16.005Z,101452.88
2023-03-01T06:00:50.427Z,101460.94
2023-03-01T06:04:37.468Z,101471.97
2023-03-01T06:08:13.353Z,101473.25
2023-03-01T06:11:51.302Z,101464.72
2023-03-01T06:15:22.694Z,101471.78
2023-03-01T06:18:47.087Z,101471.44
2023-03-01T06:22:10.488Z,101462.50
2023-03-01T06:25:40.774Z,101469.88
2023-03-01T06:29:10.090Z,101468.38
2023-03-01T06:32:28.516Z,101471.00
2023-03-01T06:36:01.821Z,101474.25
2023-03-01T06:39:43.561Z,101477.16
2023-03-01T06:43:33.509Z,101482.66
2023-03-01T06:47:23.560Z,101493.44
2023-03-01T06:51:08.370Z,101479.50
2023-03-01T06:54:37.101Z,101481.75
2023-03-01T06:58:03.498Z,101479.28
2023-03-01T07:01:29.404Z,101482.13
2023-03-01T07:05:10.230Z,101483.00
2023-03-01T07:08:49.896Z,101478.56
2023-03-01T07:16:28.861Z,101476.88
2023-03-01T07:19:51.396Z,101472.97
2023-03-01T07:27:34.736Z,101489.38
2023-03-01T07:31:12.911Z,101481.84
2023-03-01T07:34:45.145Z,101482.50
2023-03-01T07:42:37.592Z,101480.91
2023-03-01T07:46:01.567Z,101484.03
2023-03-01T07:49:39.389Z,101480.44
2023-03-01T07:53:43.359Z,101478.50
2023-03-01T07:57:26.767Z,101466.56
2023-03-01T08:01:09.239Z,101468.97
2023-03-01T08:04:28.206Z,101461.75
2023-03-01T08:08:10.884Z,101458.47
2023-03-01T08:11:39.933Z,101458.06
2023-03-01T08:19:00.678Z,101460.16
2023-03-01T08:22:36.708Z,101460.81
2023-03-01T08:26:20.773Z,101452.62
2023-03-01T08:29:56.805Z,101447.59
2023-03-01T08:33:27.206Z,101444.19
2023-03-01T08:36:58.558Z,101445.09
2023-03-01T08:44:17.926Z,101447.59
2023-03-01T08:47:37.230Z,101446.19
2023-03-01T08:51:20.898Z,101439.91
2023-03-01T08:54:48.516Z,101436.87
2023-03-01T08:58:26.009Z,101428.16
2023-03-01T09:01:59.691Z,101422.88
2023-03-01T09:05:27.502Z,101419.78
2023-03-01T09:09:18.458Z,101420.19
2023-03-01T09:12:35.382Z,101404.44
2023-03-01T09:16:20.331Z,101404.09
2023-03-01T09:19:38.325Z,101405.63
2023-03-01T09:23:02.462Z,101392.81
2023-03-01T09:26:11.399Z,101385.06
2023-03-01T09:29:58.710Z,101393.47
2023-03-01T09:33:02.703Z,101395.34
2023-03-01T09:36:09.399Z,101374.97
2023-03-01T09:39:13.888Z,101368.69
2023-03-01T09:43:17.257Z,101368.53
2023-03-01T09:47:28.346Z,101366.97
2023-03-01T09:51:28.059Z,101354.25
2023-03-01T09:54:43.931Z,101354.56
2023-03-01T09:58:27.246Z,101350.75
2023-03-01T10:02:15.751Z,101342.25
2023-03-01T10:05:56.239Z,101360.00
2023-03-01T10:09:28.317Z,101344.16
2023-03-01T10:13:19.947Z,101341.25
2023-03-01T10:17:32.926Z,101331.22
2023-03-01T10:20:55.766Z,101320.00
2023-03-01T10:24:24.337Z,101318.03
2023-03-01T10:27:53.799Z,101318.19
2023-03-01T10:31:24.520Z,101317.94
2023-03-01T10:34:33.830Z,101303.34
2023-03-01T10:38:17.679Z,101304.37
2023-03-01T10:42:22.322Z,101303.94
2023-03-01T10:46:30.654Z,101291.63
2023-03-01T10:50:07.357Z,101292.81
2023-03-01T10:53:32.668Z,101276.00
2023-03-01T10:57:29.455Z,101272.28
2023-03-01T11:01:07.295Z,101260.44
2023-03-01T11:04:29.916Z,101256.03
2023-03-01T11:07:50.387Z,101256.25
2023-03-01T11:11:21.637Z,101256.03
2023-03-01T11:14:46.835Z,101249.91
2023-03-01T11:17:55.790Z,101246.66
2023-03-01T11:22:02.518Z,101251.09
2023-03-01T11:25:10.944Z,101251.25
2023-03-01T11:28:46.118Z,101250.16
2023-03-01T11:32:03.229Z,101244.41
2023-03-01T11:35:27.873Z,101237.44
2023-03-01T11:38:54.594Z,101238.16
2023-03-01T11:42:32.428Z,101237.34
2023-03-01T11:45:55.666Z,101226.16
2023-03-01T11:49:42.151Z,101225.62
2023-03-01T11:53:50.805Z,101223.47
2023-03-01T11:57:48.499Z,101223.91
2023-03-01T12:01:29.894Z,101220.59
2023-03-01T12:05:22.291Z,101218.62
2023-03-01T12:09:02.090Z,101219.22
2023-03-01T12:13:13.911Z,101205.00
2023-03-01T12:17:10.337Z,101198.53
2023-03-01T12:20:28.822Z,101188.50
2023-03-01T12:23:51.360Z,101186.06
2023-03-01T12:27:55.348Z,101180.59
2023-03-01T12:31:37.581Z,101172.37
2023-03-01T12:35:32.680Z,101174.62
2023-03-01T12:39:01.014Z,101167.91
2023-03-01T12:43:05.773Z,101171.03
2023-03-01T12:47:06.738Z,101152.59
2023-03-01T12:50:53.356Z,101157.62
2023-03-01T12:54:33.816Z,101163.13
2023-03-01T12:58:14.487Z,101163.72
2023-03-01T13:01:55.305Z,101152.13
2023-03-01T13:05:18.943Z,101146.44
2023-03-01T13:08:49.129Z,101153.59
2023-03-01T13:11:52.669Z,101146.81
2023-03-01T13:15:26.058Z,101150.69
2023-03-01T13:19:19.172Z,101149.91
2023-03-01T13:22:39.735Z,101142.50
2023-03-01T13:26:18.029Z,101128.00
2023-03-01T13:29:50.818Z,101126.06
2023-03-01T13:33:15.966Z,101128.03
2023-03-01T13:36:49.730Z,101122.03
2023-03-01T13:40:28.786Z,101117.56
2023-03-01T13:43:58.907Z,101111.44
2023-03-01T13:48:10.116Z,101115.03
2023-03-01T13:51:32.571Z,101101.16
2023-03-01T13:54:57.365Z,101099.38
2023-03-01T13:58:33.949Z,101097.13
2023-03-01T14:02:01.765Z,101088.59
2023-03-01T14:09:57.510Z,101084.50
2023-03-01T14:18:08.744Z,101059.78
2023-03-01T14:21:59.505Z,101056.84
2023-03-01T14:29:59.799Z,101046.87
2023-03-01T14:33:43.607Z,101046.66
2023-03-01T14:37:44.591Z,101036.00
2023-03-01T14:40:55.978Z,101039.03
2023-03-01T14:44:26.793Z,101034.34
2023-03-01T14:48:52.639Z,101029.13
2023-03-01T14:52:23.010Z,101036.63
2023-03-01T14:56:01.928Z,101027.97
2023-03-01T14:59:48.635Z,101024.75
2023-03-01T15:03:39.188Z,101031.38
2023-03-01T15:07:35.232Z,101019.94
2023-03-01T15:11:01.675Z,101021.09
2023-03-01T15:14:49.417Z,101027.03
2023-03-01T15:18:22.846Z,101021.28
2023-03-01T15:21:36.401Z,101020.31
2023-03-01T15:24:48.982Z,101018.56
2023-03-01T15:27:58.618Z,101027.03
2023-03-01T15:31:17.602Z,101024.22
2023-03-01T15:34:26.767Z,101029.72
2023-03-01T15:37:53.466Z,101021.94
2023-03-01T15:41:22.383Z,101027.59
2023-03-01T15:44:42.671Z,101023.44
2023-03-01T15:47:52.506Z,101020.37
2023-03-01T15:50:58.055Z,101027.50
2023-03-01T15:54:07.343Z,101018.03
2023-03-01T15:57:22.059Z,101019.31
2023-03-01T16:00:25.788Z,101028.88
2023-03-01T16:03:59.674Z,101041.72
2023-03-01T16:07:02.666Z,101031.13
2023-03-01T16:10:44.315Z,101040.28
2023-03-01T16:13:54.240Z,101042.44
2023-03-01T16:16:59.751Z,101050.97
2023-03-01T16:20:29.080Z,101045.00
2023-03-01T16:23:33.234Z,101048.47
2023-03-01T16:26:40.851Z,101052.00
2023-03-01T16:29:43.401Z,101046.59
2023-03-01T16:33:51.778Z,101053.47
2023-03-01T16:37:20.610Z,101046.44
2023-03-01T16:40:49.166Z,101063.25
2023-03-01T16:43:57.710Z,101065.06
2023-03-01T16:47:05.078Z,101066.38
2023-03-01T16:50:09.633Z,101071.34
2023-03-01T16:53:18.723Z,101071.81
2023-03-01T16:56:41.288Z,101066.22
2023-03-01T16:59:50.643Z,101064.66
2023-03-01T17:02:56.062Z,101078.41
2023-03-01T17:06:06.781Z,101075.97
2023-03-01T17:09:10.889Z,101077.81
2023-03-01T17:12:53.166Z,101083.63
2023-03-01T17:16:28.073Z,101085.22
2023-03-01T17:19:47.026Z,101088.41
2023-03-01T17:23:30.996Z,101090.59
2023-03-01T17:27:08.233Z,101071.97
2023-03-01T17:30:18.271Z,101086.06
2023-03-01T17:33:58.241Z,101086.19
2023-03-01T17:41:38.438Z,101084.87
2023-03-01T17:45:15.673Z,101087.25
2023-03-01T17:48:52.062Z,101077.72
2023-03-01T17:52:28.155Z,101081.66
2023-03-01T17:56:00.845Z,101076.63
2023-03-01T17:59:37.290Z,101079.50
2023-03-01T18:03:09.549Z,101078.47
2023-03-01T18:06:44.297Z,101075.59
2023-03-01T18:10:27.709Z,101069.44
2023-03-01T18:14:04.145Z,101066.34
2023-03-01T18:17:12.132Z,101065.84
2023-03-01T18:20:15.623Z,101059.75
2023-03-01T18:23:21.548Z,101064.56
2023-03-01T18:26:30.693Z,101064.88
2023-03-01T18:29:57.361Z,101067.81
2023-03-01T18:33:19.935Z,101060.13
2023-03-01T18:37:09.556Z,101077.22
2023-03-01T18:40:42.791Z,101076.03
2023-03-01T18:43:51.156Z,101077.53
2023-03-01T18:47:17.207Z,101074.41
2023-03-01T18:50:54.807Z,101076.59
2023-03-01T18:54:00.280Z,101068.41
2023-03-01T18:57:36.779Z,101063.00
2023-03-01T19:01:22.364Z,101061.19
2023-03-01T19:04:28.318Z,101056.12
2023-03-01T19:07:34.549Z,101053.19
2023-03-01T19:11:20.286Z,101057.78
2023-03-01T19:14:23.572Z,101058.53
2023-03-01T19:17:35.257Z,101054.81
2023-03-01T19:21:14.280Z,101055.59
2023-03-01T19:24:37.643Z,101058.44
2023-03-01T19:27:50.107Z,101069.34
2023-03-01T19:31:36.531Z,101060.25
2023-03-01T19:34:41.155Z,101066.63
2023-03-01T19:38:07.003Z,101079.81
2023-03-01T19:41:17.064Z,101075.44
2023-03-01T19:44:41.606Z,101077.87
2023-03-01T19:47:49.067Z,101075.00
2023-03-01T19:50:54.697Z,101076.59
2023-03-01T19:54:01.630Z,101081.31
2023-03-01T19:57:04.508Z,101077.50
2023-03-01T20:00:09.938Z,101079.47
2023-03-01T20:03:43.401Z,101085.44
2023-03-01T20:07:26.049Z,101091.75
2023-03-01T20:10:52.848Z,101091.06
2023-03-01T20:13:58.521Z,101097.28
2023-03-01T20:17:44.743Z,101083.56
2023-03-01T20:20:54.292Z,101108.56
2023-03-01T20:24:36.984Z,101103.44
2023-03-01T20:27:40.924Z,101107.53
2023-03-01T20:30:52.671Z,101114.09
2023-03-01T20:34:04.521Z,101112.50
2023-03-01T20:37:48.130Z,101109.97
2023-03-01T20:41:51.781Z,101118.47
2023-03-01T20:49:30.635Z,101126.34
2023-03-01T20:53:13.831Z,101121.50
2023-03-01T20:56:21.189Z,101131.28
2023-03-01T21:00:09.169Z,101128.72
2023-03-01T21:03:12.134Z,101126.31
2023-03-01T21:06:57.847Z,101136.09
2023-03-01T21:10:20.546Z,101131.66
2023-03-01T21:13:27.630Z,101126.78
2023-03-01T21:16:52.652Z,101139.34
2023-03-01T21:20:43.087Z,101143.47
2023-03-01T21:24:06.716Z,101147.34
2023-03-01T21:27:49.832Z,101140.22
2023-03-01T21:31:22.625Z,101147.41
2023-03-01T21:38:52.502Z,101144.84
2023-03-01T21:42:19.242Z,101149.37
2023-03-01T21:46:04.657Z,101150.34
2023-03-01T21:49:27.404Z,101147.44
2023-03-01T21:52:54.440Z,101140.28
2023-03-01T21:55:58.055Z,101144.66
2023-03-01T22:00:05.180Z,101132.75
2023-03-01T22:03:50.426Z,101138.28
2023-03-01T22:07:13.503Z,101129.69
2023-03-01T22:11:23.585Z,101134.44
2023-03-01T22:14:30.239Z,101128.75
2023-03-01T22:17:54.636Z,101134.81
2023-03-01T22:20:57.580Z,101135.13
2023-03-01T22:24:24.219Z,101124.59
2023-03-01T22:27:31.383Z,101123.75
2023-03-01T22:30:34.671Z,101120.97
2023-03-01T22:34:01.270Z,101130.41
2023-03-01T22:37:07.666Z,101126.06
2023-03-01T22:40:29.357Z,101128.03
2023-03-01T22:43:33.626Z,101130.97
2023-03-01T22:46:39.382Z,101130.97
2023-03-01T22:49:59.446Z,101131.44
2023-03-01T22:53:35.678Z,101127.72
2023-03-01T22:57:11.476Z,101125.75
2023-03-01T23:00:54.962Z,101130.97
2023-03-01T23:04:19.770Z,101127.38
2023-03-01T23:07:26.865Z,101127.41
2023-03-01T23:11:34.237Z,101121.03
2023-03-01T23:15:22.131Z,101124.28
2023-03-01T23:18:45.657Z,101126.75
2023-03-01T23:22:33.495Z,101131.94
2023-03-01T23:26:01.364Z,101136.78
2023-03-01T23:29:47.089Z,101136.50
2023-03-01T23:33:11.750Z,101134.34
2023-03-01T23:36:45.250Z,101139.41
2023-03-01T23:40:08.655Z,101145.41
2023-03-01T23:43:33.348Z,101145.91
2023-03-01T23:46:58.148Z,101145.22
2023-03-01T23:50:35.829Z,101140.66
2023-03-01T23:54:12.187Z,101135.16
2023-03-01T23:57:35.671Z,101131.53
